sensor_id;sensor_type;location;lat;lon;timestamp;temperature;humidity
31263;DHT22;17892;52.080;9.006;2024-01-11T00:01:48;-7.70;99.10
31263;DHT22;17892;52.080;9.006;2024-01-11T00:04:34;-7.70;99.20
31263;DHT22;17892;52.080;9.006;2024-01-11T00:07:11;-7.70;99.10
31263;DHT22;17892;52.080;9.006;2024-01-11T00:09:47;-7.70;99.10
31263;DHT22;17892;52.080;9.006;2024-01-11T00:12:16;-7.70;99.10
31263;DHT22;17892;52.080;9.006;2024-01-11T00:14:42;-7.70;99.00
31263;DHT22;17892;52.080;9.006;2024-01-11T00:17:08;-7.70;99.00
31263;DHT22;17892;52.080;9.006;2024-01-11T00:19:34;-7.70;99.00
31263;DHT22;17892;52.080;9.006;2024-01-11T00:22:00;-7.70;98.90
31263;DHT22;17892;52.080;9.006;2024-01-11T00:24:29;-7.70;98.90
31263;DHT22;17892;52.080;9.006;2024-01-11T00:26:55;-7.70;98.90
31263;DHT22;17892;52.080;9.006;2024-01-11T00:29:25;-7.80;99.10
31263;DHT22;17892;52.080;9.006;2024-01-11T00:31:54;-7.80;99.20
31263;DHT22;17892;52.080;9.006;2024-01-11T00:34:21;-7.70;99.40
31263;DHT22;17892;52.080;9.006;2024-01-11T00:36:47;-7.70;99.30
31263;DHT22;17892;52.080;9.006;2024-01-11T00:39:14;-7.70;99.20
31263;DHT22;17892;52.080;9.006;2024-01-11T00:41:42;-7.70;99.40
31263;DHT22;17892;52.080;9.006;2024-01-11T00:44:07;-7.70;99.10
31263;DHT22;17892;52.080;9.006;2024-01-11T00:46:35;-7.80;99.00
31263;DHT22;17892;52.080;9.006;2024-01-11T00:49:03;-7.70;98.90
31263;DHT22;17892;52.080;9.006;2024-01-11T00:51:30;-7.80;98.80
31263;DHT22;17892;52.080;9.006;2024-01-11T00:53:57;-7.80;98.90
31263;DHT22;17892;52.080;9.006;2024-01-11T00:56:24;-7.80;98.90
31263;DHT22;17892;52.080;9.006;2024-01-11T00:58:53;-7.80;98.90
31263;DHT22;17892;52.080;9.006;2024-01-11T01:01:21;-7.80;98.90
31263;DHT22;17892;52.080;9.006;2024-01-11T01:04:05;-7.80;98.90
31263;DHT22;17892;52.080;9.006;2024-01-11T01:06:36;-7.90;98.80
31263;DHT22;17892;52.080;9.006;2024-01-11T01:09:09;-7.80;98.90
31263;DHT22;17892;52.080;9.006;2024-01-11T01:11:34;-7.90;98.90
31263;DHT22;17892;52.080;9.006;2024-01-11T01:14:03;-7.90;98.90
31263;DHT22;17892;52.080;9.006;2024-01-11T01:16:28;-7.90;99.00
31263;DHT22;17892;52.080;9.006;2024-01-11T01:18:54;-7.90;99.00
31263;DHT22;17892;52.080;9.006;2024-01-11T01:21:27;-7.90;99.10
31263;DHT22;17892;52.080;9.006;2024-01-11T01:24:03;-7.90;99.20
31263;DHT22;17892;52.080;9.006;2024-01-11T01:26:38;-7.80;99.40
31263;DHT22;17892;52.080;9.006;2024-01-11T01:29:06;-7.80;99.50
31263;DHT22;17892;52.080;9.006;2024-01-11T01:31:37;-7.70;99.70
31263;DHT22;17892;52.080;9.006;2024-01-11T01:34:09;-7.80;99.60
31263;DHT22;17892;52.080;9.006;2024-01-11T01:36:39;-7.70;99.50
31263;DHT22;17892;52.080;9.006;2024-01-11T01:39:04;-7.70;99.50
31263;DHT22;17892;52.080;9.006;2024-01-11T01:41:30;-7.70;99.40
31263;DHT22;17892;52.080;9.006;2024-01-11T01:43:57;-7.70;99.30
31263;DHT22;17892;52.080;9.006;2024-01-11T01:46:27;-7.70;99.20
31263;DHT22;17892;52.080;9.006;2024-01-11T01:49:00;-7.70;99.20
31263;DHT22;17892;52.080;9.006;2024-01-11T01:51:29;-7.70;99.40
31263;DHT22;17892;52.080;9.006;2024-01-11T01:54:00;-7.80;99.00
31263;DHT22;17892;52.080;9.006;2024-01-11T01:56:55;-7.80;99.00
31263;DHT22;17892;52.080;9.006;2024-01-11T01:59:30;-7.80;99.00
31263;DHT22;17892;52.080;9.006;2024-01-11T02:02:00;-7.80;99.10
31263;DHT22;17892;52.080;9.006;2024-01-11T02:04:26;-7.80;99.20
31263;DHT22;17892;52.080;9.006;2024-01-11T02:07:03;-7.80;99.20
31263;DHT22;17892;52.080;9.006;2024-01-11T02:09:42;-7.80;99.30
31263;DHT22;17892;52.080;9.006;2024-01-11T02:12:09;-7.80;99.40
31263;DHT22;17892;52.080;9.006;2024-01-11T02:14:45;-7.80;99.40
31263;DHT22;17892;52.080;9.006;2024-01-11T02:17:24;-7.80;99.30
31263;DHT22;17892;52.080;9.006;2024-01-11T02:20:00;-7.80;99.20
31263;DHT22;17892;52.080;9.006;2024-01-11T02:22:40;-7.80;99.10
31263;DHT22;17892;52.080;9.006;2024-01-11T02:25:47;-7.80;99.00
31263;DHT22;17892;52.080;9.006;2024-01-11T02:28:15;-7.90;98.90
31263;DHT22;17892;52.080;9.006;2024-01-11T02:30:42;-7.90;99.00
31263;DHT22;17892;52.080;9.006;2024-01-11T02:33:28;-7.90;99.00
31263;DHT22;17892;52.080;9.006;2024-01-11T02:35:54;-7.90;99.00
31263;DHT22;17892;52.080;9.006;2024-01-11T02:38:21;-7.90;99.00
31263;DHT22;17892;52.080;9.006;2024-01-11T02:40:47;-7.90;99.00
31263;DHT22;17892;52.080;9.006;2024-01-11T02:43:19;-7.90;99.40
31263;DHT22;17892;52.080;9.006;2024-01-11T02:45:48;-7.90;99.10
31263;DHT22;17892;52.080;9.006;2024-01-11T02:48:15;-7.90;99.00
31263;DHT22;17892;52.080;9.006;2024-01-11T02:50:45;-7.90;99.00
31263;DHT22;17892;52.080;9.006;2024-01-11T02:53:18;-7.90;99.10
31263;DHT22;17892;52.080;9.006;2024-01-11T02:55:43;-7.90;99.10
31263;DHT22;17892;52.080;9.006;2024-01-11T02:58:12;-7.90;99.30
31263;DHT22;17892;52.080;9.006;2024-01-11T03:00:37;-7.90;99.40
31263;DHT22;17892;52.080;9.006;2024-01-11T03:03:06;-7.90;99.50
31263;DHT22;17892;52.080;9.006;2024-01-11T03:05:33;-7.90;99.50
31263;DHT22;17892;52.080;9.006;2024-01-11T03:07:59;-7.90;99.50
31263;DHT22;17892;52.080;9.006;2024-01-11T03:10:25;-7.90;99.40
31263;DHT22;17892;52.080;9.006;2024-01-11T03:12:51;-7.90;99.40
31263;DHT22;17892;52.080;9.006;2024-01-11T03:15:16;-7.80;99.60
31263;DHT22;17892;52.080;9.006;2024-01-11T03:17:42;-7.80;99.50
31263;DHT22;17892;52.080;9.006;2024-01-11T03:20:08;-7.80;99.50
31263;DHT22;17892;52.080;9.006;2024-01-11T03:22:34;-7.80;99.50
31263;DHT22;17892;52.080;9.006;2024-01-11T03:25:00;-7.80;99.40
31263;DHT22;17892;52.080;9.006;2024-01-11T03:27:25;-7.80;99.40
31263;DHT22;17892;52.080;9.006;2024-01-11T03:29:51;-7.80;99.40
31263;DHT22;17892;52.080;9.006;2024-01-11T03:32:17;-7.80;99.50
31263;DHT22;17892;52.080;9.006;2024-01-11T03:34:42;-7.70;99.60
31263;DHT22;17892;52.080;9.006;2024-01-11T03:37:09;-7.70;99.70
31263;DHT22;17892;52.080;9.006;2024-01-11T03:39:40;-7.70;99.80
31263;DHT22;17892;52.080;9.006;2024-01-11T03:42:06;-7.70;99.80
31263;DHT22;17892;52.080;9.006;2024-01-11T03:44:33;-7.70;99.70
31263;DHT22;17892;52.080;9.006;2024-01-11T03:47:00;-7.60;99.80
31263;DHT22;17892;52.080;9.006;2024-01-11T03:49:27;-7.60;99.80
31263;DHT22;17892;52.080;9.006;2024-01-11T03:51:57;-7.60;99.70
31263;DHT22;17892;52.080;9.006;2024-01-11T03:54:33;-7.60;99.70
31263;DHT22;17892;52.080;9.006;2024-01-11T03:57:09;-7.60;99.70
31263;DHT22;17892;52.080;9.006;2024-01-11T03:59:34;-7.60;99.70
31263;DHT22;17892;52.080;9.006;2024-01-11T04:02:03;-7.60;99.70
31263;DHT22;17892;52.080;9.006;2024-01-11T04:04:48;-7.60;99.60
31263;DHT22;17892;52.080;9.006;2024-01-11T04:07:14;-7.60;99.50
31263;DHT22;17892;52.080;9.006;2024-01-11T04:09:42;-7.60;99.60
31263;DHT22;17892;52.080;9.006;2024-01-11T04:12:12;-7.60;99.50
31263;DHT22;17892;52.080;9.006;2024-01-11T04:14:39;-7.60;99.40
31263;DHT22;17892;52.080;9.006;2024-01-11T04:17:06;-7.60;99.40
31263;DHT22;17892;52.080;9.006;2024-01-11T04:19:33;-7.60;99.30
31263;DHT22;17892;52.080;9.006;2024-01-11T04:22:00;-7.60;99.30
31263;DHT22;17892;52.080;9.006;2024-01-11T04:24:30;-7.70;99.30
31263;DHT22;17892;52.080;9.006;2024-01-11T04:26:57;-7.70;99.40
31263;DHT22;17892;52.080;9.006;2024-01-11T04:29:43;-7.70;99.40
31263;DHT22;17892;52.080;9.006;2024-01-11T04:32:12;-7.70;99.50
31263;DHT22;17892;52.080;9.006;2024-01-11T04:34:39;-7.70;99.70
31263;DHT22;17892;52.080;9.006;2024-01-11T04:37:06;-7.60;99.80
31263;DHT22;17892;52.080;9.006;2024-01-11T04:39:34;-7.60;99.80
31263;DHT22;17892;52.080;9.006;2024-01-11T04:42:03;-7.60;99.70
31263;DHT22;17892;52.080;9.006;2024-01-11T04:44:29;-7.60;99.60
31263;DHT22;17892;52.080;9.006;2024-01-11T04:47:00;-7.60;99.60
31263;DHT22;17892;52.080;9.006;2024-01-11T04:49:25;-7.60;99.50
31263;DHT22;17892;52.080;9.006;2024-01-11T04:51:51;-7.60;99.50
31263;DHT22;17892;52.080;9.006;2024-01-11T04:54:18;-7.60;99.50
31263;DHT22;17892;52.080;9.006;2024-01-11T04:59:39;-7.60;99.80
31263;DHT22;17892;52.080;9.006;2024-01-11T05:02:09;-7.60;99.90
31263;DHT22;17892;52.080;9.006;2024-01-11T05:04:45;-7.60;99.90
31263;DHT22;17892;52.080;9.006;2024-01-11T05:07:16;-7.60;99.90
31263;DHT22;17892;52.080;9.006;2024-01-11T05:09:42;-7.60;99.80
31263;DHT22;17892;52.080;9.006;2024-01-11T05:12:08;-7.60;99.90
31263;DHT22;17892;52.080;9.006;2024-01-11T05:14:40;-7.60;99.90
31263;DHT22;17892;52.080;9.006;2024-01-11T05:17:15;-7.50;99.90
31263;DHT22;17892;52.080;9.006;2024-01-11T05:19:40;-7.50;99.90
31263;DHT22;17892;52.080;9.006;2024-01-11T05:22:09;-7.40;99.90
31263;DHT22;17892;52.080;9.006;2024-01-11T05:24:36;-7.40;99.90
31263;DHT22;17892;52.080;9.006;2024-01-11T05:27:07;-7.30;99.90
31263;DHT22;17892;52.080;9.006;2024-01-11T05:29:40;-7.20;99.90
31263;DHT22;17892;52.080;9.006;2024-01-11T05:32:09;-7.10;99.90
31263;DHT22;17892;52.080;9.006;2024-01-11T05:34:36;-7.00;99.90
31263;DHT22;17892;52.080;9.006;2024-01-11T05:37:07;-6.90;99.90
31263;DHT22;17892;52.080;9.006;2024-01-11T05:39:42;-6.80;99.90
31263;DHT22;17892;52.080;9.006;2024-01-11T05:42:09;-6.60;99.90
31263;DHT22;17892;52.080;9.006;2024-01-11T05:44:35;-6.50;99.90
31263;DHT22;17892;52.080;9.006;2024-01-11T05:47:00;-6.50;99.90
31263;DHT22;17892;52.080;9.006;2024-01-11T05:49:36;-6.40;99.90
31263;DHT22;17892;52.080;9.006;2024-01-11T05:52:06;-6.40;99.90
31263;DHT22;17892;52.080;9.006;2024-01-11T05:54:45;-6.40;99.90
31263;DHT22;17892;52.080;9.006;2024-01-11T05:57:33;-6.40;99.90
31263;DHT22;17892;52.080;9.006;2024-01-11T06:00:11;-6.40;99.90
31263;DHT22;17892;52.080;9.006;2024-01-11T06:02:42;-6.40;99.90
31263;DHT22;17892;52.080;9.006;2024-01-11T06:05:18;-6.50;99.90
31263;DHT22;17892;52.080;9.006;2024-01-11T06:07:44;-6.50;99.90
31263;DHT22;17892;52.080;9.006;2024-01-11T06:10:16;-6.50;99.90
31263;DHT22;17892;52.080;9.006;2024-01-11T06:12:46;-6.70;99.90
31263;DHT22;17892;52.080;9.006;2024-01-11T06:15:34;-6.60;99.90
31263;DHT22;17892;52.080;9.006;2024-01-11T06:18:00;-6.60;99.90
31263;DHT22;17892;52.080;9.006;2024-01-11T06:20:48;-6.50;99.90
31263;DHT22;17892;52.080;9.006;2024-01-11T06:23:15;-6.50;99.90
31263;DHT22;17892;52.080;9.006;2024-01-11T06:25:51;-6.60;99.90
31263;DHT22;17892;52.080;9.006;2024-01-11T06:28:18;-6.60;99.90
31263;DHT22;17892;52.080;9.006;2024-01-11T06:30:44;-6.60;99.90
31263;DHT22;17892;52.080;9.006;2024-01-11T06:33:12;-6.60;99.90
31263;DHT22;17892;52.080;9.006;2024-01-11T06:35:39;-6.60;99.90
31263;DHT22;17892;52.080;9.006;2024-01-11T06:38:22;-6.60;99.90
31263;DHT22;17892;52.080;9.006;2024-01-11T06:40:48;-6.60;99.90
31263;DHT22;17892;52.080;9.006;2024-01-11T06:43:19;-6.60;99.90
31263;DHT22;17892;52.080;9.006;2024-01-11T06:45:45;-6.60;99.90
31263;DHT22;17892;52.080;9.006;2024-01-11T06:48:15;-6.60;99.90
31263;DHT22;17892;52.080;9.006;2024-01-11T06:50:47;-6.60;99.90
31263;DHT22;17892;52.080;9.006;2024-01-11T06:53:21;-6.60;99.90
31263;DHT22;17892;52.080;9.006;2024-01-11T06:55:47;-6.50;99.90
31263;DHT22;17892;52.080;9.006;2024-01-11T06:58:24;-6.50;99.90
31263;DHT22;17892;52.080;9.006;2024-01-11T07:00:55;-6.50;99.90
31263;DHT22;17892;52.080;9.006;2024-01-11T07:03:31;-6.50;99.90
31263;DHT22;17892;52.080;9.006;2024-01-11T07:06:03;-6.60;99.90
31263;DHT22;17892;52.080;9.006;2024-01-11T07:08:31;-6.60;99.90
31263;DHT22;17892;52.080;9.006;2024-01-11T07:11:00;-6.50;99.90
31263;DHT22;17892;52.080;9.006;2024-01-11T07:13:36;-6.60;99.90
31263;DHT22;17892;52.080;9.006;2024-01-11T07:16:02;-6.60;99.90
31263;DHT22;17892;52.080;9.006;2024-01-11T07:18:34;-6.60;99.90
31263;DHT22;17892;52.080;9.006;2024-01-11T07:21:09;-6.60;99.90
31263;DHT22;17892;52.080;9.006;2024-01-11T07:23:36;-6.60;99.90
31263;DHT22;17892;52.080;9.006;2024-01-11T07:26:07;-6.60;99.90
31263;DHT22;17892;52.080;9.006;2024-01-11T07:28:39;-6.60;99.90
31263;DHT22;17892;52.080;9.006;2024-01-11T07:31:05;-6.60;99.90
31263;DHT22;17892;52.080;9.006;2024-01-11T07:33:40;-6.60;99.90
31263;DHT22;17892;52.080;9.006;2024-01-11T07:36:09;-6.60;99.90
31263;DHT22;17892;52.080;9.006;2024-01-11T07:39:03;-6.60;99.90
31263;DHT22;17892;52.080;9.006;2024-01-11T07:41:30;-6.60;99.90
31263;DHT22;17892;52.080;9.006;2024-01-11T07:44:01;-6.60;99.90
31263;DHT22;17892;52.080;9.006;2024-01-11T07:46:27;-6.60;99.90
31263;DHT22;17892;52.080;9.006;2024-01-11T07:49:03;-6.60;99.90
31263;DHT22;17892;52.080;9.006;2024-01-11T07:51:33;-6.60;99.90
31263;DHT22;17892;52.080;9.006;2024-01-11T07:54:06;-6.60;99.90
31263;DHT22;17892;52.080;9.006;2024-01-11T07:56:35;-6.60;99.90
31263;DHT22;17892;52.080;9.006;2024-01-11T07:59:01;-6.60;99.90
31263;DHT22;17892;52.080;9.006;2024-01-11T08:01:27;-6.60;99.90
31263;DHT22;17892;52.080;9.006;2024-01-11T08:03:57;-6.50;99.90
31263;DHT22;17892;52.080;9.006;2024-01-11T08:06:34;-6.50;99.90
31263;DHT22;17892;52.080;9.006;2024-01-11T08:09:01;-6.50;99.90
31263;DHT22;17892;52.080;9.006;2024-01-11T08:11:27;-6.50;99.90
31263;DHT22;17892;52.080;9.006;2024-01-11T08:13:57;-6.40;99.90
31263;DHT22;17892;52.080;9.006;2024-01-11T08:16:24;-6.40;99.90
31263;DHT22;17892;52.080;9.006;2024-01-11T08:18:51;-6.40;99.90
31263;DHT22;17892;52.080;9.006;2024-01-11T08:21:17;-6.40;99.90
31263;DHT22;17892;52.080;9.006;2024-01-11T08:23:42;-6.30;99.90
31263;DHT22;17892;52.080;9.006;2024-01-11T08:26:22;-6.30;99.90
31263;DHT22;17892;52.080;9.006;2024-01-11T08:28:48;-6.20;99.90
31263;DHT22;17892;52.080;9.006;2024-01-11T08:31:14;-6.20;99.90
31263;DHT22;17892;52.080;9.006;2024-01-11T08:33:40;-6.10;99.90
31263;DHT22;17892;52.080;9.006;2024-01-11T08:36:11;-6.00;99.90
31263;DHT22;17892;52.080;9.006;2024-01-11T08:38:39;-5.90;99.90
31263;DHT22;17892;52.080;9.006;2024-01-11T08:41:15;-5.80;99.90
31263;DHT22;17892;52.080;9.006;2024-01-11T08:43:43;-5.60;99.90
31263;DHT22;17892;52.080;9.006;2024-01-11T08:46:30;-5.40;99.90
31263;DHT22;17892;52.080;9.006;2024-01-11T08:48:58;-5.10;99.90
31263;DHT22;17892;52.080;9.006;2024-01-11T08:51:29;-4.90;99.90
31263;DHT22;17892;52.080;9.006;2024-01-11T08:54:03;-4.60;99.90
31263;DHT22;17892;52.080;9.006;2024-01-11T08:56:34;-4.30;99.90
31263;DHT22;17892;52.080;9.006;2024-01-11T08:59:00;-4.00;99.90
31263;DHT22;17892;52.080;9.006;2024-01-11T09:01:31;-3.80;99.90
31263;DHT22;17892;52.080;9.006;2024-01-11T09:03:57;-3.50;99.90
31263;DHT22;17892;52.080;9.006;2024-01-11T09:06:23;-3.30;99.90
31263;DHT22;17892;52.080;9.006;2024-01-11T09:08:49;-3.10;99.90
31263;DHT22;17892;52.080;9.006;2024-01-11T09:11:16;-2.90;99.90
31263;DHT22;17892;52.080;9.006;2024-01-11T09:13:42;-2.70;99.90
31263;DHT22;17892;52.080;9.006;2024-01-11T09:16:08;-2.50;99.90
31263;DHT22;17892;52.080;9.006;2024-01-11T09:18:35;-2.30;99.90
31263;DHT22;17892;52.080;9.006;2024-01-11T09:21:01;-2.10;99.90
31263;DHT22;17892;52.080;9.006;2024-01-11T09:23:26;-2.00;99.90
31263;DHT22;17892;52.080;9.006;2024-01-11T09:25:52;-1.80;99.90
31263;DHT22;17892;52.080;9.006;2024-01-11T09:28:18;-1.60;99.90
31263;DHT22;17892;52.080;9.006;2024-01-11T09:30:44;-1.50;99.90
31263;DHT22;17892;52.080;9.006;2024-01-11T09:33:09;-1.30;99.90
31263;DHT22;17892;52.080;9.006;2024-01-11T09:35:35;-1.30;99.90
31263;DHT22;17892;52.080;9.006;2024-01-11T09:38:01;-1.10;99.90
31263;DHT22;17892;52.080;9.006;2024-01-11T09:40:26;-1.00;99.90
31263;DHT22;17892;52.080;9.006;2024-01-11T09:42:52;-0.90;99.90
31263;DHT22;17892;52.080;9.006;2024-01-11T09:45:18;-0.90;99.90
31263;DHT22;17892;52.080;9.006;2024-01-11T09:47:44;-0.80;99.90
31263;DHT22;17892;52.080;9.006;2024-01-11T09:50:11;-0.90;99.90
31263;DHT22;17892;52.080;9.006;2024-01-11T09:52:47;-0.90;99.90
31263;DHT22;17892;52.080;9.006;2024-01-11T09:55:14;-1.00;99.90
31263;DHT22;17892;52.080;9.006;2024-01-11T09:57:44;-1.10;99.90
31263;DHT22;17892;52.080;9.006;2024-01-11T10:00:16;-1.20;99.90
31263;DHT22;17892;52.080;9.006;2024-01-11T10:02:46;-1.30;99.90
31263;DHT22;17892;52.080;9.006;2024-01-11T10:05:36;-1.40;99.90
31263;DHT22;17892;52.080;9.006;2024-01-11T10:08:09;-1.40;99.90
31263;DHT22;17892;52.080;9.006;2024-01-11T10:10:42;-1.60;99.90
31263;DHT22;17892;52.080;9.006;2024-01-11T10:13:08;-1.50;99.90
31263;DHT22;17892;52.080;9.006;2024-01-11T10:15:34;-1.60;99.90
31263;DHT22;17892;52.080;9.006;2024-01-11T10:18:04;-1.50;99.90
31263;DHT22;17892;52.080;9.006;2024-01-11T10:20:33;-1.50;99.90
31263;DHT22;17892;52.080;9.006;2024-01-11T10:23:20;-1.50;99.90
31263;DHT22;17892;52.080;9.006;2024-01-11T10:28:48;-1.50;99.90
31263;DHT22;17892;52.080;9.006;2024-01-11T10:31:15;-1.50;99.90
31263;DHT22;17892;52.080;9.006;2024-01-11T10:33:41;-1.40;99.90
31263;DHT22;17892;52.080;9.006;2024-01-11T10:36:15;-1.40;99.90
31263;DHT22;17892;52.080;9.006;2024-01-11T10:38:48;-1.30;99.90
31263;DHT22;17892;52.080;9.006;2024-01-11T10:41:19;-1.20;99.90
31263;DHT22;17892;52.080;9.006;2024-01-11T10:44:00;-1.00;99.90
31263;DHT22;17892;52.080;9.006;2024-01-11T10:46:28;-0.70;99.90
31263;DHT22;17892;52.080;9.006;2024-01-11T10:48:56;-0.50;99.90
31263;DHT22;17892;52.080;9.006;2024-01-11T10:51:28;-0.20;99.90
31263;DHT22;17892;52.080;9.006;2024-01-11T10:53:59;0.10;99.90
31263;DHT22;17892;52.080;9.006;2024-01-11T10:56:28;0.30;99.90
31263;DHT22;17892;52.080;9.006;2024-01-11T10:59:11;0.50;99.90
31263;DHT22;17892;52.080;9.006;2024-01-11T11:01:40;0.70;99.90
31263;DHT22;17892;52.080;9.006;2024-01-11T11:04:13;0.80;99.90
31263;DHT22;17892;52.080;9.006;2024-01-11T11:06:49;1.00;99.90
31263;DHT22;17892;52.080;9.006;2024-01-11T11:09:37;1.10;99.90
31263;DHT22;17892;52.080;9.006;2024-01-11T11:12:13;1.30;99.90
31263;DHT22;17892;52.080;9.006;2024-01-11T11:14:43;1.40;99.90
31263;DHT22;17892;52.080;9.006;2024-01-11T11:17:10;1.50;99.90
31263;DHT22;17892;52.080;9.006;2024-01-11T11:19:45;1.60;99.90
31263;DHT22;17892;52.080;9.006;2024-01-11T11:22:22;1.70;99.90
31263;DHT22;17892;52.080;9.006;2024-01-11T11:24:47;1.80;99.90
31263;DHT22;17892;52.080;9.006;2024-01-11T11:27:13;1.80;99.90
31263;DHT22;17892;52.080;9.006;2024-01-11T11:29:40;1.90;99.90
31263;DHT22;17892;52.080;9.006;2024-01-11T11:32:10;1.90;99.90
31263;DHT22;17892;52.080;9.006;2024-01-11T11:34:45;1.90;99.90
31263;DHT22;17892;52.080;9.006;2024-01-11T11:37:12;2.00;99.90
31263;DHT22;17892;52.080;9.006;2024-01-11T11:39:38;2.00;99.90
31263;DHT22;17892;52.080;9.006;2024-01-11T11:42:04;2.00;99.90
31263;DHT22;17892;52.080;9.006;2024-01-11T11:44:30;2.10;99.90
31263;DHT22;17892;52.080;9.006;2024-01-11T11:47:18;2.10;99.90
31263;DHT22;17892;52.080;9.006;2024-01-11T11:49:58;2.20;99.90
31263;DHT22;17892;52.080;9.006;2024-01-11T11:52:30;2.20;99.90
31263;DHT22;17892;52.080;9.006;2024-01-11T11:54:58;2.30;99.90
31263;DHT22;17892;52.080;9.006;2024-01-11T11:57:26;2.30;99.90
31263;DHT22;17892;52.080;9.006;2024-01-11T11:59:57;2.40;99.90
31263;DHT22;17892;52.080;9.006;2024-01-11T12:02:27;2.40;99.90
31263;DHT22;17892;52.080;9.006;2024-01-11T12:04:53;2.40;99.90
31263;DHT22;17892;52.080;9.006;2024-01-11T12:07:23;2.40;99.90
31263;DHT22;17892;52.080;9.006;2024-01-11T12:09:49;2.40;99.90
31263;DHT22;17892;52.080;9.006;2024-01-11T12:12:16;2.40;99.90
31263;DHT22;17892;52.080;9.006;2024-01-11T12:14:47;2.40;99.90
31263;DHT22;17892;52.080;9.006;2024-01-11T12:17:13;2.40;99.90
31263;DHT22;17892;52.080;9.006;2024-01-11T12:19:39;2.40;99.90
31263;DHT22;17892;52.080;9.006;2024-01-11T12:22:05;2.40;99.90
31263;DHT22;17892;52.080;9.006;2024-01-11T12:24:31;2.40;99.90
31263;DHT22;17892;52.080;9.006;2024-01-11T12:26:59;2.40;99.90
31263;DHT22;17892;52.080;9.006;2024-01-11T12:29:25;2.40;99.90
31263;DHT22;17892;52.080;9.006;2024-01-11T12:31:54;2.40;99.90
31263;DHT22;17892;52.080;9.006;2024-01-11T12:34:21;2.30;99.90
31263;DHT22;17892;52.080;9.006;2024-01-11T12:36:49;2.40;99.90
31263;DHT22;17892;52.080;9.006;2024-01-11T12:39:16;2.40;99.90
31263;DHT22;17892;52.080;9.006;2024-01-11T12:41:42;2.40;99.90
31263;DHT22;17892;52.080;9.006;2024-01-11T12:44:08;2.40;99.90
31263;DHT22;17892;52.080;9.006;2024-01-11T12:46:34;2.40;99.90
31263;DHT22;17892;52.080;9.006;2024-01-11T12:48:59;2.40;99.90
31263;DHT22;17892;52.080;9.006;2024-01-11T12:51:26;2.40;99.90
31263;DHT22;17892;52.080;9.006;2024-01-11T12:53:52;2.40;99.90
31263;DHT22;17892;52.080;9.006;2024-01-11T12:56:19;2.40;99.90
31263;DHT22;17892;52.080;9.006;2024-01-11T12:58:46;2.50;99.90
31263;DHT22;17892;52.080;9.006;2024-01-11T13:01:12;2.50;99.90
31263;DHT22;17892;52.080;9.006;2024-01-11T13:03:44;2.50;99.90
31263;DHT22;17892;52.080;9.006;2024-01-11T13:06:11;2.60;99.90
31263;DHT22;17892;52.080;9.006;2024-01-11T13:08:37;2.60;99.90
31263;DHT22;17892;52.080;9.006;2024-01-11T13:11:05;2.60;99.90
31263;DHT22;17892;52.080;9.006;2024-01-11T13:13:35;2.80;99.90
31263;DHT22;17892;52.080;9.006;2024-01-11T13:16:04;2.70;99.90
31263;DHT22;17892;52.080;9.006;2024-01-11T13:18:39;2.80;99.90
31263;DHT22;17892;52.080;9.006;2024-01-11T13:21:05;2.80;99.90
31263;DHT22;17892;52.080;9.006;2024-01-11T13:23:32;2.70;99.90
31263;DHT22;17892;52.080;9.006;2024-01-11T13:25:57;2.70;99.90
31263;DHT22;17892;52.080;9.006;2024-01-11T13:28:23;2.70;99.90
31263;DHT22;17892;52.080;9.006;2024-01-11T13:30:49;2.70;99.90
31263;DHT22;17892;52.080;9.006;2024-01-11T13:33:15;2.70;99.90
31263;DHT22;17892;52.080;9.006;2024-01-11T13:35:45;2.70;99.90
31263;DHT22;17892;52.080;9.006;2024-01-11T13:38:11;2.80;99.90
31263;DHT22;17892;52.080;9.006;2024-01-11T13:40:37;2.70;99.90
31263;DHT22;17892;52.080;9.006;2024-01-11T13:43:03;2.70;99.90
31263;DHT22;17892;52.080;9.006;2024-01-11T13:45:29;2.70;99.90
31263;DHT22;17892;52.080;9.006;2024-01-11T13:47:55;2.70;99.90
31263;DHT22;17892;52.080;9.006;2024-01-11T13:50:21;2.70;99.90
31263;DHT22;17892;52.080;9.006;2024-01-11T13:52:49;2.70;99.90
31263;DHT22;17892;52.080;9.006;2024-01-11T13:55:16;2.80;99.90
31263;DHT22;17892;52.080;9.006;2024-01-11T13:57:43;2.70;99.90
31263;DHT22;17892;52.080;9.006;2024-01-11T14:00:10;2.70;99.90
31263;DHT22;17892;52.080;9.006;2024-01-11T14:02:39;2.80;99.90
31263;DHT22;17892;52.080;9.006;2024-01-11T14:05:08;2.70;99.90
31263;DHT22;17892;52.080;9.006;2024-01-11T14:07:39;2.70;99.90
31263;DHT22;17892;52.080;9.006;2024-01-11T14:10:06;2.70;99.90
31263;DHT22;17892;52.080;9.006;2024-01-11T14:12:36;2.70;99.90
31263;DHT22;17892;52.080;9.006;2024-01-11T14:15:07;2.70;99.90
31263;DHT22;17892;52.080;9.006;2024-01-11T14:17:38;2.70;99.90
31263;DHT22;17892;52.080;9.006;2024-01-11T14:20:05;2.70;99.90
31263;DHT22;17892;52.080;9.006;2024-01-11T14:22:36;2.70;99.90
31263;DHT22;17892;52.080;9.006;2024-01-11T14:25:02;2.70;99.90
31263;DHT22;17892;52.080;9.006;2024-01-11T14:27:28;2.70;99.90
31263;DHT22;17892;52.080;9.006;2024-01-11T14:29:56;2.70;99.90
31263;DHT22;17892;52.080;9.006;2024-01-11T14:32:22;2.70;99.90
31263;DHT22;17892;52.080;9.006;2024-01-11T14:34:47;2.80;99.90
31263;DHT22;17892;52.080;9.006;2024-01-11T14:37:13;2.70;99.90
31263;DHT22;17892;52.080;9.006;2024-01-11T14:39:40;2.70;99.90
31263;DHT22;17892;52.080;9.006;2024-01-11T14:42:06;2.70;99.90
31263;DHT22;17892;52.080;9.006;2024-01-11T14:44:34;2.70;99.90
31263;DHT22;17892;52.080;9.006;2024-01-11T14:47:01;2.70;99.90
31263;DHT22;17892;52.080;9.006;2024-01-11T14:49:27;2.70;99.90
31263;DHT22;17892;52.080;9.006;2024-01-11T14:51:54;2.70;99.90
31263;DHT22;17892;52.080;9.006;2024-01-11T14:54:20;2.70;99.90
31263;DHT22;17892;52.080;9.006;2024-01-11T14:56:46;2.70;99.90
31263;DHT22;17892;52.080;9.006;2024-01-11T14:59:13;2.70;99.90
31263;DHT22;17892;52.080;9.006;2024-01-11T15:01:39;2.70;99.90
31263;DHT22;17892;52.080;9.006;2024-01-11T15:04:05;2.60;99.90
31263;DHT22;17892;52.080;9.006;2024-01-11T15:06:30;2.60;99.90
31263;DHT22;17892;52.080;9.006;2024-01-11T15:08:56;2.60;99.90
31263;DHT22;17892;52.080;9.006;2024-01-11T15:11:22;2.70;99.90
31263;DHT22;17892;52.080;9.006;2024-01-11T15:13:48;2.60;99.90
31263;DHT22;17892;52.080;9.006;2024-01-11T15:16:13;2.60;99.90
31263;DHT22;17892;52.080;9.006;2024-01-11T15:18:39;2.60;99.90
31263;DHT22;17892;52.080;9.006;2024-01-11T15:21:05;2.60;99.90
31263;DHT22;17892;52.080;9.006;2024-01-11T15:23:31;2.60;99.90
31263;DHT22;17892;52.080;9.006;2024-01-11T15:25:57;2.60;99.90
31263;DHT22;17892;52.080;9.006;2024-01-11T15:28:23;2.60;99.90
31263;DHT22;17892;52.080;9.006;2024-01-11T15:30:49;2.60;99.90
31263;DHT22;17892;52.080;9.006;2024-01-11T15:33:14;2.60;99.90
31263;DHT22;17892;52.080;9.006;2024-01-11T15:35:40;2.60;99.90
31263;DHT22;17892;52.080;9.006;2024-01-11T15:38:06;2.60;99.90
31263;DHT22;17892;52.080;9.006;2024-01-11T15:40:31;2.60;99.90
31263;DHT22;17892;52.080;9.006;2024-01-11T15:42:58;2.60;99.90
31263;DHT22;17892;52.080;9.006;2024-01-11T15:45:23;2.50;99.90
31263;DHT22;17892;52.080;9.006;2024-01-11T15:47:49;2.50;99.90
31263;DHT22;17892;52.080;9.006;2024-01-11T15:50:16;2.50;99.90
31263;DHT22;17892;52.080;9.006;2024-01-11T15:52:43;2.50;99.90
31263;DHT22;17892;52.080;9.006;2024-01-11T15:55:09;2.50;99.90